sensor_id;sensor_type;location;lat;lon;timestamp;P1;durP1;ratioP1;P2;durP2;ratioP2
4232;SDS011;2130;48.472;11.934;2023-05-07T00:01:33;40.73;;;1.63;;
4232;SDS011;2130;48.472;11.934;2023-05-07T00:04:21;41.60;;;1.57;;
4232;SDS011;2130;48.472;11.934;2023-05-07T00:07:10;41.27;;;1.67;;
4232;SDS011;2130;48.472;11.934;2023-05-07T00:09:58;41.50;;;1.63;;
4232;SDS011;2130;48.472;11.934;2023-05-07T00:12:47;41.17;;;1.67;;
4232;SDS011;2130;48.472;11.934;2023-05-07T00:15:35;40.97;;;1.60;;
4232;SDS011;2130;48.472;11.934;2023-05-07T00:18:25;40.27;;;1.30;;
4232;SDS011;2130;48.472;11.934;2023-05-07T00:21:13;41.80;;;1.93;;
4232;SDS011;2130;48.472;11.934;2023-05-07T00:24:02;41.30;;;1.67;;
4232;SDS011;2130;48.472;11.934;2023-05-07T00:26:50;41.03;;;1.60;;
4232;SDS011;2130;48.472;11.934;2023-05-07T00:29:39;40.07;;;1.50;;
4232;SDS011;2130;48.472;11.934;2023-05-07T00:32:27;41.70;;;1.70;;
4232;SDS011;2130;48.472;11.934;2023-05-07T00:35:17;39.87;;;1.73;;
4232;SDS011;2130;48.472;11.934;2023-05-07T00:38:06;40.70;;;1.53;;
4232;SDS011;2130;48.472;11.934;2023-05-07T00:40:54;40.50;;;1.57;;
4232;SDS011;2130;48.472;11.934;2023-05-07T00:43:43;39.97;;;1.60;;
4232;SDS011;2130;48.472;11.934;2023-05-07T00:46:32;41.07;;;1.80;;
4232;SDS011;2130;48.472;11.934;2023-05-07T00:49:21;41.00;;;1.50;;
4232;SDS011;2130;48.472;11.934;2023-05-07T00:52:11;40.40;;;1.90;;
4232;SDS011;2130;48.472;11.934;2023-05-07T00:55:03;39.97;;;1.90;;
4232;SDS011;2130;48.472;11.934;2023-05-07T00:57:53;40.00;;;1.60;;
4232;SDS011;2130;48.472;11.934;2023-05-07T01:00:42;40.50;;;1.77;;
4232;SDS011;2130;48.472;11.934;2023-05-07T01:03:30;41.50;;;1.73;;
4232;SDS011;2130;48.472;11.934;2023-05-07T01:06:19;40.17;;;1.70;;
4232;SDS011;2130;48.472;11.934;2023-05-07T01:09:10;39.17;;;1.60;;
4232;SDS011;2130;48.472;11.934;2023-05-07T01:11:58;40.03;;;1.60;;
4232;SDS011;2130;48.472;11.934;2023-05-07T01:14:47;39.40;;;1.50;;
4232;SDS011;2130;48.472;11.934;2023-05-07T01:17:37;40.50;;;1.40;;
4232;SDS011;2130;48.472;11.934;2023-05-07T01:20:32;40.17;;;1.60;;
4232;SDS011;2130;48.472;11.934;2023-05-07T01:23:22;40.00;;;1.63;;
4232;SDS011;2130;48.472;11.934;2023-05-07T01:26:11;41.83;;;1.77;;
4232;SDS011;2130;48.472;11.934;2023-05-07T01:29:01;39.50;;;1.60;;
4232;SDS011;2130;48.472;11.934;2023-05-07T01:31:50;39.10;;;1.67;;
4232;SDS011;2130;48.472;11.934;2023-05-07T01:34:39;39.60;;;1.50;;
4232;SDS011;2130;48.472;11.934;2023-05-07T01:37:28;39.90;;;1.83;;
4232;SDS011;2130;48.472;11.934;2023-05-07T01:40:18;39.07;;;1.57;;
4232;SDS011;2130;48.472;11.934;2023-05-07T01:43:07;38.60;;;1.80;;
4232;SDS011;2130;48.472;11.934;2023-05-07T01:45:57;39.87;;;2.10;;
4232;SDS011;2130;48.472;11.934;2023-05-07T01:48:46;39.63;;;1.70;;
4232;SDS011;2130;48.472;11.934;2023-05-07T01:51:35;37.90;;;1.60;;
4232;SDS011;2130;48.472;11.934;2023-05-07T01:54:25;38.77;;;1.57;;
4232;SDS011;2130;48.472;11.934;2023-05-07T01:57:17;39.17;;;1.80;;
4232;SDS011;2130;48.472;11.934;2023-05-07T02:00:06;40.03;;;1.73;;
4232;SDS011;2130;48.472;11.934;2023-05-07T02:03:03;38.70;;;1.83;;
4232;SDS011;2130;48.472;11.934;2023-05-07T02:06:00;38.77;;;1.60;;
4232;SDS011;2130;48.472;11.934;2023-05-07T02:08:54;37.83;;;1.80;;
4232;SDS011;2130;48.472;11.934;2023-05-07T02:11:43;39.10;;;1.60;;
4232;SDS011;2130;48.472;11.934;2023-05-07T02:14:33;38.27;;;1.70;;
4232;SDS011;2130;48.472;11.934;2023-05-07T02:17:21;40.67;;;1.70;;
4232;SDS011;2130;48.472;11.934;2023-05-07T02:20:10;40.33;;;2.10;;
4232;SDS011;2130;48.472;11.934;2023-05-07T02:23:01;38.60;;;1.70;;
4232;SDS011;2130;48.472;11.934;2023-05-07T02:25:50;38.80;;;1.70;;
4232;SDS011;2130;48.472;11.934;2023-05-07T02:28:39;40.07;;;1.70;;
4232;SDS011;2130;48.472;11.934;2023-05-07T02:31:28;38.17;;;1.80;;
4232;SDS011;2130;48.472;11.934;2023-05-07T02:34:17;38.27;;;1.60;;
4232;SDS011;2130;48.472;11.934;2023-05-07T02:37:05;39.20;;;1.60;;
4232;SDS011;2130;48.472;11.934;2023-05-07T02:39:54;38.97;;;1.70;;
4232;SDS011;2130;48.472;11.934;2023-05-07T02:42:42;39.33;;;1.73;;
4232;SDS011;2130;48.472;11.934;2023-05-07T02:45:31;38.57;;;1.43;;
4232;SDS011;2130;48.472;11.934;2023-05-07T02:48:22;38.60;;;1.93;;
4232;SDS011;2130;48.472;11.934;2023-05-07T02:51:11;45.87;;;1.80;;
4232;SDS011;2130;48.472;11.934;2023-05-07T02:54:01;37.20;;;1.40;;
4232;SDS011;2130;48.472;11.934;2023-05-07T02:56:51;37.80;;;1.73;;
4232;SDS011;2130;48.472;11.934;2023-05-07T02:59:39;38.87;;;1.60;;
4232;SDS011;2130;48.472;11.934;2023-05-07T03:02:28;38.33;;;1.67;;
4232;SDS011;2130;48.472;11.934;2023-05-07T03:05:18;36.90;;;1.50;;
4232;SDS011;2130;48.472;11.934;2023-05-07T03:08:06;38.03;;;2.17;;
4232;SDS011;2130;48.472;11.934;2023-05-07T03:10:54;38.30;;;1.80;;
4232;SDS011;2130;48.472;11.934;2023-05-07T03:13:43;38.27;;;1.60;;
4232;SDS011;2130;48.472;11.934;2023-05-07T03:16:32;37.10;;;1.77;;
4232;SDS011;2130;48.472;11.934;2023-05-07T03:19:20;38.63;;;1.80;;
4232;SDS011;2130;48.472;11.934;2023-05-07T03:22:10;37.67;;;1.60;;
4232;SDS011;2130;48.472;11.934;2023-05-07T03:24:58;37.30;;;1.50;;
4232;SDS011;2130;48.472;11.934;2023-05-07T03:27:46;38.93;;;2.00;;
4232;SDS011;2130;48.472;11.934;2023-05-07T03:30:38;36.97;;;1.53;;
4232;SDS011;2130;48.472;11.934;2023-05-07T03:33:26;35.70;;;1.40;;
4232;SDS011;2130;48.472;11.934;2023-05-07T03:36:15;37.40;;;1.67;;
4232;SDS011;2130;48.472;11.934;2023-05-07T03:39:06;38.43;;;2.03;;
4232;SDS011;2130;48.472;11.934;2023-05-07T03:41:58;38.80;;;2.10;;
4232;SDS011;2130;48.472;11.934;2023-05-07T03:44:48;38.43;;;1.70;;
4232;SDS011;2130;48.472;11.934;2023-05-07T03:47:37;37.90;;;1.90;;
4232;SDS011;2130;48.472;11.934;2023-05-07T03:50:28;37.10;;;1.70;;
4232;SDS011;2130;48.472;11.934;2023-05-07T03:53:16;38.07;;;1.60;;
4232;SDS011;2130;48.472;11.934;2023-05-07T03:56:06;37.70;;;1.60;;
4232;SDS011;2130;48.472;11.934;2023-05-07T03:58:58;36.57;;;1.60;;
4232;SDS011;2130;48.472;11.934;2023-05-07T04:01:46;38.40;;;1.97;;
4232;SDS011;2130;48.472;11.934;2023-05-07T04:04:37;37.30;;;1.70;;
4232;SDS011;2130;48.472;11.934;2023-05-07T04:07:27;36.60;;;1.80;;
4232;SDS011;2130;48.472;11.934;2023-05-07T04:10:15;37.80;;;1.93;;
4232;SDS011;2130;48.472;11.934;2023-05-07T04:13:08;35.67;;;2.00;;
4232;SDS011;2130;48.472;11.934;2023-05-07T04:15:57;36.80;;;1.70;;
4232;SDS011;2130;48.472;11.934;2023-05-07T04:18:47;37.77;;;1.60;;
4232;SDS011;2130;48.472;11.934;2023-05-07T04:21:36;36.80;;;1.73;;
4232;SDS011;2130;48.472;11.934;2023-05-07T04:24:25;37.40;;;1.77;;
4232;SDS011;2130;48.472;11.934;2023-05-07T04:27:13;37.77;;;1.60;;
4232;SDS011;2130;48.472;11.934;2023-05-07T04:30:04;37.47;;;1.60;;
4232;SDS011;2130;48.472;11.934;2023-05-07T04:32:57;37.40;;;2.10;;
4232;SDS011;2130;48.472;11.934;2023-05-07T04:35:48;37.50;;;1.70;;
4232;SDS011;2130;48.472;11.934;2023-05-07T04:38:37;36.70;;;1.70;;
4232;SDS011;2130;48.472;11.934;2023-05-07T04:41:26;37.00;;;1.70;;
4232;SDS011;2130;48.472;11.934;2023-05-07T04:44:15;36.70;;;1.63;;
4232;SDS011;2130;48.472;11.934;2023-05-07T04:47:06;36.10;;;1.70;;
4232;SDS011;2130;48.472;11.934;2023-05-07T04:49:54;36.87;;;1.70;;
4232;SDS011;2130;48.472;11.934;2023-05-07T04:52:43;36.07;;;1.87;;
4232;SDS011;2130;48.472;11.934;2023-05-07T04:55:32;36.60;;;1.77;;
4232;SDS011;2130;48.472;11.934;2023-05-07T04:58:21;37.90;;;1.80;;
4232;SDS011;2130;48.472;11.934;2023-05-07T05:01:10;37.10;;;1.77;;
4232;SDS011;2130;48.472;11.934;2023-05-07T05:04:00;36.77;;;1.50;;
4232;SDS011;2130;48.472;11.934;2023-05-07T05:06:49;37.40;;;1.60;;
4232;SDS011;2130;48.472;11.934;2023-05-07T05:09:38;37.30;;;1.80;;
4232;SDS011;2130;48.472;11.934;2023-05-07T05:12:27;37.60;;;1.70;;
4232;SDS011;2130;48.472;11.934;2023-05-07T05:15:15;37.90;;;1.93;;
4232;SDS011;2130;48.472;11.934;2023-05-07T05:18:04;38.00;;;1.83;;
4232;SDS011;2130;48.472;11.934;2023-05-07T05:20:54;37.73;;;1.70;;
4232;SDS011;2130;48.472;11.934;2023-05-07T05:23:43;38.03;;;1.97;;
4232;SDS011;2130;48.472;11.934;2023-05-07T05:26:32;36.83;;;1.60;;
4232;SDS011;2130;48.472;11.934;2023-05-07T05:29:22;38.37;;;1.60;;
4232;SDS011;2130;48.472;11.934;2023-05-07T05:32:10;38.20;;;1.90;;
4232;SDS011;2130;48.472;11.934;2023-05-07T05:34:59;38.00;;;1.80;;
4232;SDS011;2130;48.472;11.934;2023-05-07T05:37:50;35.27;;;1.47;;
4232;SDS011;2130;48.472;11.934;2023-05-07T05:40:38;37.43;;;1.60;;
4232;SDS011;2130;48.472;11.934;2023-05-07T05:43:27;37.60;;;1.77;;
4232;SDS011;2130;48.472;11.934;2023-05-07T05:46:16;39.03;;;2.20;;
4232;SDS011;2130;48.472;11.934;2023-05-07T05:49:04;38.77;;;2.13;;
4232;SDS011;2130;48.472;11.934;2023-05-07T05:51:53;37.90;;;1.80;;
4232;SDS011;2130;48.472;11.934;2023-05-07T05:54:45;38.97;;;1.87;;
4232;SDS011;2130;48.472;11.934;2023-05-07T05:57:34;38.17;;;1.83;;
4232;SDS011;2130;48.472;11.934;2023-05-07T06:00:22;38.90;;;1.80;;
4232;SDS011;2130;48.472;11.934;2023-05-07T06:03:19;38.07;;;1.73;;
4232;SDS011;2130;48.472;11.934;2023-05-07T06:06:07;39.67;;;1.90;;
4232;SDS011;2130;48.472;11.934;2023-05-07T06:08:56;39.00;;;1.50;;
4232;SDS011;2130;48.472;11.934;2023-05-07T06:11:52;38.83;;;1.90;;
4232;SDS011;2130;48.472;11.934;2023-05-07T06:14:42;38.80;;;1.70;;
4232;SDS011;2130;48.472;11.934;2023-05-07T06:17:31;40.10;;;1.93;;
4232;SDS011;2130;48.472;11.934;2023-05-07T06:20:20;39.70;;;2.07;;
4232;SDS011;2130;48.472;11.934;2023-05-07T06:23:09;39.67;;;1.80;;
4232;SDS011;2130;48.472;11.934;2023-05-07T06:25:58;40.30;;;1.80;;
4232;SDS011;2130;48.472;11.934;2023-05-07T06:28:53;39.63;;;1.70;;
4232;SDS011;2130;48.472;11.934;2023-05-07T06:31:42;40.07;;;2.10;;
4232;SDS011;2130;48.472;11.934;2023-05-07T06:34:31;40.33;;;2.03;;
4232;SDS011;2130;48.472;11.934;2023-05-07T06:37:19;40.40;;;1.63;;
4232;SDS011;2130;48.472;11.934;2023-05-07T06:40:18;40.77;;;1.70;;
4232;SDS011;2130;48.472;11.934;2023-05-07T06:43:08;40.40;;;1.60;;
4232;SDS011;2130;48.472;11.934;2023-05-07T06:46:15;42.37;;;2.07;;
4232;SDS011;2130;48.472;11.934;2023-05-07T06:49:04;40.37;;;1.80;;
4232;SDS011;2130;48.472;11.934;2023-05-07T06:51:53;40.87;;;2.17;;
4232;SDS011;2130;48.472;11.934;2023-05-07T06:54:42;41.07;;;1.80;;
4232;SDS011;2130;48.472;11.934;2023-05-07T06:57:34;41.37;;;2.00;;
4232;SDS011;2130;48.472;11.934;2023-05-07T07:00:23;41.80;;;2.10;;
4232;SDS011;2130;48.472;11.934;2023-05-07T07:03:16;40.57;;;1.70;;
4232;SDS011;2130;48.472;11.934;2023-05-07T07:06:05;41.90;;;2.00;;
4232;SDS011;2130;48.472;11.934;2023-05-07T07:08:54;41.57;;;1.70;;
4232;SDS011;2130;48.472;11.934;2023-05-07T07:11:42;41.30;;;1.90;;
4232;SDS011;2130;48.472;11.934;2023-05-07T07:14:31;41.70;;;2.10;;
4232;SDS011;2130;48.472;11.934;2023-05-07T07:17:19;42.27;;;1.97;;
4232;SDS011;2130;48.472;11.934;2023-05-07T07:20:10;42.20;;;2.03;;
4232;SDS011;2130;48.472;11.934;2023-05-07T07:23:00;42.37;;;1.90;;
4232;SDS011;2130;48.472;11.934;2023-05-07T07:25:48;42.17;;;1.80;;
4232;SDS011;2130;48.472;11.934;2023-05-07T07:28:41;42.37;;;1.80;;
4232;SDS011;2130;48.472;11.934;2023-05-07T07:31:33;42.30;;;1.97;;
4232;SDS011;2130;48.472;11.934;2023-05-07T07:34:22;41.90;;;1.80;;
4232;SDS011;2130;48.472;11.934;2023-05-07T07:37:12;42.87;;;1.70;;
4232;SDS011;2130;48.472;11.934;2023-05-07T07:40:01;41.60;;;1.80;;
4232;SDS011;2130;48.472;11.934;2023-05-07T07:42:52;41.90;;;1.60;;
4232;SDS011;2130;48.472;11.934;2023-05-07T07:45:41;42.47;;;1.70;;
4232;SDS011;2130;48.472;11.934;2023-05-07T07:48:30;42.80;;;1.67;;
4232;SDS011;2130;48.472;11.934;2023-05-07T07:51:19;42.80;;;2.10;;
4232;SDS011;2130;48.472;11.934;2023-05-07T07:54:11;43.10;;;2.40;;
4232;SDS011;2130;48.472;11.934;2023-05-07T07:57:00;43.80;;;2.10;;
4232;SDS011;2130;48.472;11.934;2023-05-07T07:59:51;43.03;;;1.80;;
4232;SDS011;2130;48.472;11.934;2023-05-07T08:02:40;42.70;;;2.07;;
4232;SDS011;2130;48.472;11.934;2023-05-07T08:05:32;46.60;;;1.90;;
4232;SDS011;2130;48.472;11.934;2023-05-07T08:08:22;47.40;;;2.20;;
4232;SDS011;2130;48.472;11.934;2023-05-07T08:11:14;43.93;;;2.30;;
4232;SDS011;2130;48.472;11.934;2023-05-07T08:14:02;42.77;;;1.90;;
4232;SDS011;2130;48.472;11.934;2023-05-07T08:16:52;43.50;;;1.80;;
4232;SDS011;2130;48.472;11.934;2023-05-07T08:19:41;43.87;;;2.10;;
4232;SDS011;2130;48.472;11.934;2023-05-07T08:22:32;43.90;;;2.30;;
4232;SDS011;2130;48.472;11.934;2023-05-07T08:25:22;43.67;;;2.00;;
4232;SDS011;2130;48.472;11.934;2023-05-07T08:28:12;43.20;;;1.87;;
4232;SDS011;2130;48.472;11.934;2023-05-07T08:31:01;42.30;;;1.73;;
4232;SDS011;2130;48.472;11.934;2023-05-07T08:33:54;43.33;;;2.00;;
4232;SDS011;2130;48.472;11.934;2023-05-07T08:36:42;42.47;;;1.77;;
4232;SDS011;2130;48.472;11.934;2023-05-07T08:39:34;43.17;;;2.03;;
4232;SDS011;2130;48.472;11.934;2023-05-07T08:42:25;43.60;;;2.30;;
4232;SDS011;2130;48.472;11.934;2023-05-07T08:45:17;43.70;;;2.13;;
4232;SDS011;2130;48.472;11.934;2023-05-07T08:48:09;43.50;;;2.37;;
4232;SDS011;2130;48.472;11.934;2023-05-07T08:50:58;43.97;;;2.40;;
4232;SDS011;2130;48.472;11.934;2023-05-07T08:53:47;43.60;;;2.10;;
4232;SDS011;2130;48.472;11.934;2023-05-07T08:56:42;42.47;;;2.23;;
4232;SDS011;2130;48.472;11.934;2023-05-07T08:59:31;43.80;;;2.50;;
4232;SDS011;2130;48.472;11.934;2023-05-07T09:02:21;43.17;;;2.27;;
4232;SDS011;2130;48.472;11.934;2023-05-07T09:05:09;43.80;;;2.27;;
4232;SDS011;2130;48.472;11.934;2023-05-07T09:07:58;44.30;;;2.27;;
4232;SDS011;2130;48.472;11.934;2023-05-07T09:10:47;43.57;;;2.77;;
4232;SDS011;2130;48.472;11.934;2023-05-07T09:13:37;41.70;;;2.07;;
4232;SDS011;2130;48.472;11.934;2023-05-07T09:16:25;42.93;;;2.87;;
4232;SDS011;2130;48.472;11.934;2023-05-07T09:19:16;42.50;;;2.37;;
4232;SDS011;2130;48.472;11.934;2023-05-07T09:22:11;43.10;;;2.60;;
4232;SDS011;2130;48.472;11.934;2023-05-07T09:25:10;43.00;;;2.50;;
4232;SDS011;2130;48.472;11.934;2023-05-07T09:28:00;55.17;;;2.50;;
4232;SDS011;2130;48.472;11.934;2023-05-07T09:30:49;42.50;;;2.60;;
4232;SDS011;2130;48.472;11.934;2023-05-07T09:33:39;41.43;;;2.13;;
4232;SDS011;2130;48.472;11.934;2023-05-07T09:36:31;43.30;;;2.30;;
4232;SDS011;2130;48.472;11.934;2023-05-07T09:39:20;42.90;;;2.63;;
4232;SDS011;2130;48.472;11.934;2023-05-07T09:42:09;42.60;;;2.57;;
4232;SDS011;2130;48.472;11.934;2023-05-07T09:44:59;42.13;;;2.40;;
4232;SDS011;2130;48.472;11.934;2023-05-07T09:47:54;42.53;;;2.57;;
4232;SDS011;2130;48.472;11.934;2023-05-07T09:50:47;41.57;;;2.20;;
4232;SDS011;2130;48.472;11.934;2023-05-07T09:53:41;42.27;;;2.33;;
4232;SDS011;2130;48.472;11.934;2023-05-07T09:56:31;41.30;;;1.97;;
4232;SDS011;2130;48.472;11.934;2023-05-07T09:59:20;40.57;;;1.77;;
4232;SDS011;2130;48.472;11.934;2023-05-07T10:02:09;41.40;;;2.10;;
4232;SDS011;2130;48.472;11.934;2023-05-07T10:05:05;42.10;;;2.00;;
4232;SDS011;2130;48.472;11.934;2023-05-07T10:07:54;39.50;;;1.63;;
4232;SDS011;2130;48.472;11.934;2023-05-07T10:10:46;40.80;;;2.57;;
4232;SDS011;2130;48.472;11.934;2023-05-07T10:13:39;42.67;;;2.47;;
4232;SDS011;2130;48.472;11.934;2023-05-07T10:16:29;40.60;;;2.30;;
4232;SDS011;2130;48.472;11.934;2023-05-07T10:19:19;41.30;;;2.07;;
4232;SDS011;2130;48.472;11.934;2023-05-07T10:22:11;40.53;;;2.30;;
4232;SDS011;2130;48.472;11.934;2023-05-07T10:25:05;40.23;;;1.77;;
4232;SDS011;2130;48.472;11.934;2023-05-07T10:27:59;40.97;;;1.80;;
4232;SDS011;2130;48.472;11.934;2023-05-07T10:30:53;39.83;;;1.90;;
4232;SDS011;2130;48.472;11.934;2023-05-07T10:33:55;40.43;;;1.93;;
4232;SDS011;2130;48.472;11.934;2023-05-07T10:36:45;40.77;;;1.90;;
4232;SDS011;2130;48.472;11.934;2023-05-07T10:39:34;39.90;;;2.37;;
4232;SDS011;2130;48.472;11.934;2023-05-07T10:42:23;41.73;;;2.20;;
4232;SDS011;2130;48.472;11.934;2023-05-07T10:45:16;39.80;;;1.90;;
4232;SDS011;2130;48.472;11.934;2023-05-07T10:48:10;39.20;;;1.60;;
4232;SDS011;2130;48.472;11.934;2023-05-07T10:51:19;39.73;;;2.00;;
4232;SDS011;2130;48.472;11.934;2023-05-07T10:54:21;39.37;;;1.80;;
4232;SDS011;2130;48.472;11.934;2023-05-07T10:57:33;39.70;;;2.27;;
4232;SDS011;2130;48.472;11.934;2023-05-07T11:00:42;39.47;;;1.63;;
4232;SDS011;2130;48.472;11.934;2023-05-07T11:04:12;39.13;;;1.97;;
4232;SDS011;2130;48.472;11.934;2023-05-07T11:07:15;40.33;;;1.87;;
4232;SDS011;2130;48.472;11.934;2023-05-07T11:10:15;43.13;;;2.30;;
4232;SDS011;2130;48.472;11.934;2023-05-07T11:13:16;38.60;;;1.67;;
4232;SDS011;2130;48.472;11.934;2023-05-07T11:16:17;38.73;;;1.70;;
4232;SDS011;2130;48.472;11.934;2023-05-07T11:19:10;39.37;;;1.53;;
4232;SDS011;2130;48.472;11.934;2023-05-07T11:22:03;39.13;;;1.80;;
4232;SDS011;2130;48.472;11.934;2023-05-07T11:25:01;39.30;;;1.87;;
4232;SDS011;2130;48.472;11.934;2023-05-07T11:27:50;39.60;;;2.00;;
4232;SDS011;2130;48.472;11.934;2023-05-07T11:30:39;39.43;;;1.97;;
4232;SDS011;2130;48.472;11.934;2023-05-07T11:33:34;38.50;;;2.10;;
4232;SDS011;2130;48.472;11.934;2023-05-07T11:36:24;39.10;;;1.93;;
4232;SDS011;2130;48.472;11.934;2023-05-07T11:39:24;38.50;;;1.73;;
4232;SDS011;2130;48.472;11.934;2023-05-07T11:42:27;39.73;;;2.13;;
4232;SDS011;2130;48.472;11.934;2023-05-07T11:45:22;39.40;;;1.70;;
4232;SDS011;2130;48.472;11.934;2023-05-07T11:48:12;38.80;;;2.03;;
4232;SDS011;2130;48.472;11.934;2023-05-07T11:51:02;39.20;;;1.90;;
4232;SDS011;2130;48.472;11.934;2023-05-07T11:53:52;39.83;;;1.93;;
4232;SDS011;2130;48.472;11.934;2023-05-07T11:56:41;38.77;;;1.90;;
4232;SDS011;2130;48.472;11.934;2023-05-07T11:59:29;39.20;;;1.97;;
4232;SDS011;2130;48.472;11.934;2023-05-07T12:02:17;38.67;;;1.93;;
4232;SDS011;2130;48.472;11.934;2023-05-07T12:05:06;38.53;;;2.17;;
4232;SDS011;2130;48.472;11.934;2023-05-07T12:07:57;39.30;;;2.30;;
4232;SDS011;2130;48.472;11.934;2023-05-07T12:10:47;38.70;;;1.80;;
4232;SDS011;2130;48.472;11.934;2023-05-07T12:13:36;38.87;;;1.67;;
4232;SDS011;2130;48.472;11.934;2023-05-07T12:16:25;37.97;;;1.90;;
4232;SDS011;2130;48.472;11.934;2023-05-07T12:19:14;38.83;;;2.13;;
4232;SDS011;2130;48.472;11.934;2023-05-07T12:22:02;39.43;;;2.20;;
4232;SDS011;2130;48.472;11.934;2023-05-07T12:24:57;37.70;;;2.20;;
4232;SDS011;2130;48.472;11.934;2023-05-07T12:27:50;38.00;;;1.90;;
4232;SDS011;2130;48.472;11.934;2023-05-07T12:30:39;37.57;;;2.07;;
4232;SDS011;2130;48.472;11.934;2023-05-07T12:33:28;37.37;;;2.20;;
4232;SDS011;2130;48.472;11.934;2023-05-07T12:36:17;41.43;;;2.37;;
4232;SDS011;2130;48.472;11.934;2023-05-07T12:39:08;37.33;;;2.00;;
4232;SDS011;2130;48.472;11.934;2023-05-07T12:41:58;37.43;;;2.07;;
4232;SDS011;2130;48.472;11.934;2023-05-07T12:44:47;37.37;;;1.93;;
4232;SDS011;2130;48.472;11.934;2023-05-07T12:47:36;37.93;;;2.07;;
4232;SDS011;2130;48.472;11.934;2023-05-07T12:50:25;38.23;;;2.20;;
4232;SDS011;2130;48.472;11.934;2023-05-07T12:53:13;36.30;;;2.03;;
4232;SDS011;2130;48.472;11.934;2023-05-07T12:56:02;37.83;;;2.00;;
4232;SDS011;2130;48.472;11.934;2023-05-07T12:58:52;37.97;;;1.83;;
4232;SDS011;2130;48.472;11.934;2023-05-07T13:01:45;39.20;;;2.27;;
4232;SDS011;2130;48.472;11.934;2023-05-07T13:04:34;37.80;;;2.33;;
4232;SDS011;2130;48.472;11.934;2023-05-07T13:07:24;37.90;;;2.53;;
4232;SDS011;2130;48.472;11.934;2023-05-07T13:10:14;37.63;;;2.03;;
4232;SDS011;2130;48.472;11.934;2023-05-07T13:13:02;38.03;;;2.00;;
4232;SDS011;2130;48.472;11.934;2023-05-07T13:15:53;37.07;;;1.87;;
4232;SDS011;2130;48.472;11.934;2023-05-07T13:18:41;37.57;;;2.20;;
4232;SDS011;2130;48.472;11.934;2023-05-07T13:21:30;38.97;;;2.27;;
4232;SDS011;2130;48.472;11.934;2023-05-07T13:24:19;37.30;;;2.00;;
4232;SDS011;2130;48.472;11.934;2023-05-07T13:27:08;36.57;;;2.27;;
4232;SDS011;2130;48.472;11.934;2023-05-07T13:29:56;37.40;;;2.03;;
4232;SDS011;2130;48.472;11.934;2023-05-07T13:32:46;37.57;;;2.17;;
4232;SDS011;2130;48.472;11.934;2023-05-07T13:35:34;36.33;;;2.10;;
4232;SDS011;2130;48.472;11.934;2023-05-07T13:38:23;37.47;;;2.33;;
4232;SDS011;2130;48.472;11.934;2023-05-07T13:41:11;37.20;;;2.33;;
4232;SDS011;2130;48.472;11.934;2023-05-07T13:44:01;36.10;;;2.63;;
4232;SDS011;2130;48.472;11.934;2023-05-07T13:46:49;36.83;;;2.27;;
4232;SDS011;2130;48.472;11.934;2023-05-07T13:49:39;35.93;;;2.47;;
4232;SDS011;2130;48.472;11.934;2023-05-07T13:52:27;37.27;;;2.27;;
4232;SDS011;2130;48.472;11.934;2023-05-07T13:55:16;36.63;;;2.20;;
4232;SDS011;2130;48.472;11.934;2023-05-07T13:58:05;36.17;;;2.57;;
4232;SDS011;2130;48.472;11.934;2023-05-07T14:00:53;37.77;;;2.43;;
4232;SDS011;2130;48.472;11.934;2023-05-07T14:03:42;36.63;;;2.67;;
4232;SDS011;2130;48.472;11.934;2023-05-07T14:06:32;36.30;;;2.47;;
4232;SDS011;2130;48.472;11.934;2023-05-07T14:09:20;36.53;;;2.80;;
4232;SDS011;2130;48.472;11.934;2023-05-07T14:12:09;37.30;;;2.23;;
4232;SDS011;2130;48.472;11.934;2023-05-07T14:14:57;37.90;;;2.77;;
4232;SDS011;2130;48.472;11.934;2023-05-07T14:17:46;36.80;;;2.90;;
4232;SDS011;2130;48.472;11.934;2023-05-07T14:20:34;37.47;;;2.60;;
4232;SDS011;2130;48.472;11.934;2023-05-07T14:23:25;34.53;;;2.63;;
4232;SDS011;2130;48.472;11.934;2023-05-07T14:26:14;37.50;;;2.37;;
4232;SDS011;2130;48.472;11.934;2023-05-07T14:29:03;37.57;;;3.50;;
4232;SDS011;2130;48.472;11.934;2023-05-07T14:31:51;35.30;;;2.83;;
4232;SDS011;2130;48.472;11.934;2023-05-07T14:34:39;35.20;;;2.40;;
4232;SDS011;2130;48.472;11.934;2023-05-07T14:37:28;37.20;;;2.80;;
4232;SDS011;2130;48.472;11.934;2023-05-07T14:40:18;37.20;;;2.70;;
4232;SDS011;2130;48.472;11.934;2023-05-07T14:43:06;35.97;;;2.80;;
4232;SDS011;2130;48.472;11.934;2023-05-07T14:45:54;36.13;;;2.90;;
4232;SDS011;2130;48.472;11.934;2023-05-07T14:48:43;36.87;;;2.53;;
4232;SDS011;2130;48.472;11.934;2023-05-07T14:51:32;37.40;;;2.40;;
4232;SDS011;2130;48.472;11.934;2023-05-07T14:54:21;35.83;;;2.40;;
4232;SDS011;2130;48.472;11.934;2023-05-07T14:57:11;37.27;;;2.70;;
4232;SDS011;2130;48.472;11.934;2023-05-07T15:00:01;35.50;;;2.60;;
4232;SDS011;2130;48.472;11.934;2023-05-07T15:02:51;38.47;;;3.07;;
4232;SDS011;2130;48.472;11.934;2023-05-07T15:05:40;35.40;;;2.80;;
4232;SDS011;2130;48.472;11.934;2023-05-07T15:08:29;37.00;;;2.87;;
4232;SDS011;2130;48.472;11.934;2023-05-07T15:11:17;36.43;;;2.40;;
4232;SDS011;2130;48.472;11.934;2023-05-07T15:14:07;34.83;;;2.60;;
4232;SDS011;2130;48.472;11.934;2023-05-07T15:16:55;37.00;;;2.43;;
4232;SDS011;2130;48.472;11.934;2023-05-07T15:19:44;37.70;;;2.77;;
4232;SDS011;2130;48.472;11.934;2023-05-07T15:22:32;37.67;;;2.67;;
4232;SDS011;2130;48.472;11.934;2023-05-07T15:25:22;37.13;;;2.63;;
4232;SDS011;2130;48.472;11.934;2023-05-07T15:28:11;38.23;;;2.67;;
4232;SDS011;2130;48.472;11.934;2023-05-07T15:31:01;37.77;;;2.80;;
4232;SDS011;2130;48.472;11.934;2023-05-07T15:33:49;37.43;;;2.40;;
4232;SDS011;2130;48.472;11.934;2023-05-07T15:36:38;37.90;;;2.30;;
4232;SDS011;2130;48.472;11.934;2023-05-07T15:39:27;36.80;;;2.90;;
4232;SDS011;2130;48.472;11.934;2023-05-07T15:42:15;36.07;;;2.47;;
4232;SDS011;2130;48.472;11.934;2023-05-07T15:45:04;37.40;;;2.80;;
4232;SDS011;2130;48.472;11.934;2023-05-07T15:47:55;37.50;;;2.10;;
4232;SDS011;2130;48.472;11.934;2023-05-07T15:50:43;35.80;;;2.90;;
4232;SDS011;2130;48.472;11.934;2023-05-07T15:53:32;38.40;;;2.10;;
4232;SDS011;2130;48.472;11.934;2023-05-07T15:56:21;38.40;;;2.20;;
4232;SDS011;2130;48.472;11.934;2023-05-07T15:59:11;38.33;;;2.20;;
4232;SDS011;2130;48.472;11.934;2023-05-07T16:02:01;38.40;;;2.20;;
4232;SDS011;2130;48.472;11.934;2023-05-07T16:04:51;36.23;;;2.27;;
4232;SDS011;2130;48.472;11.934;2023-05-07T16:07:39;38.80;;;2.10;;
4232;SDS011;2130;48.472;11.934;2023-05-07T16:10:30;38.50;;;2.20;;
4232;SDS011;2130;48.472;11.934;2023-05-07T16:13:18;38.73;;;2.20;;
4232;SDS011;2130;48.472;11.934;2023-05-07T16:16:07;37.27;;;2.23;;
4232;SDS011;2130;48.472;11.934;2023-05-07T16:18:55;40.60;;;1.90;;
4232;SDS011;2130;48.472;11.934;2023-05-07T16:21:45;38.40;;;2.30;;
4232;SDS011;2130;48.472;11.934;2023-05-07T16:24:34;37.17;;;2.00;;
4232;SDS011;2130;48.472;11.934;2023-05-07T16:27:22;36.50;;;2.03;;
4232;SDS011;2130;48.472;11.934;2023-05-07T16:30:11;36.70;;;2.00;;
4232;SDS011;2130;48.472;11.934;2023-05-07T16:33:00;39.53;;;2.17;;
4232;SDS011;2130;48.472;11.934;2023-05-07T16:35:51;38.73;;;1.63;;
4232;SDS011;2130;48.472;11.934;2023-05-07T16:38:41;39.03;;;1.70;;
4232;SDS011;2130;48.472;11.934;2023-05-07T16:41:30;38.13;;;1.77;;
4232;SDS011;2130;48.472;11.934;2023-05-07T16:44:18;38.80;;;2.20;;
4232;SDS011;2130;48.472;11.934;2023-05-07T16:47:07;39.03;;;1.87;;
4232;SDS011;2130;48.472;11.934;2023-05-07T16:49:55;41.03;;;2.03;;
4232;SDS011;2130;48.472;11.934;2023-05-07T16:52:44;39.70;;;1.93;;
4232;SDS011;2130;48.472;11.934;2023-05-07T16:55:36;39.57;;;2.00;;
4232;SDS011;2130;48.472;11.934;2023-05-07T16:58:25;38.80;;;2.23;;
4232;SDS011;2130;48.472;11.934;2023-05-07T17:01:14;40.07;;;1.97;;
4232;SDS011;2130;48.472;11.934;2023-05-07T17:04:04;40.13;;;2.33;;
4232;SDS011;2130;48.472;11.934;2023-05-07T17:06:54;40.37;;;2.00;;